Time;durP1;ratioP1;P1;durP2;ratioP2;P2;SDS_P1;SDS_P2;PMS_P1;PMS_P2;Temp;Humidity;BMP_temperature;BMP_pressure;BME280_temperature;BME280_humidity;BME280_pressure;Samples;Min_cycle;Max_cycle;Signal;HPM_P1;HPM_P2
2023/11/18 00:01:18;;;;;;;0.30;0.20;;;;;;;5.37;99.80;101184.38;4972866;28;20500;-48
2023/11/18 00:03:44;;;;;;;0.30;0.20;;;;;;;5.31;99.30;101181.66;4972888;28;21013;-48
2023/11/18 00:06:11;;;;;;;0.30;0.20;;;;;;;5.16;99.77;101178.91;4972885;28;20450;-49
2023/11/18 00:08:37;;;;;;;0.30;0.20;;;;;;;5.26;99.92;101181.63;4972942;28;20947;-48
2023/11/18 00:11:04;;;;;;;0.30;0.20;;;;;;;5.16;100.00;101176.28;4972739;28;20470;-47
2023/11/18 00:13:30;;;;;;;0.30;0.20;;;;;;;5.33;100.00;101174.66;4972969;28;20461;-47
2023/11/18 00:15:57;;;;;;;0.30;0.20;;;;;;;5.43;100.00;101163.28;4979623;28;20543;-48
2023/11/18 00:18:24;;;;;;;0.30;0.20;;;;;;;5.12;100.00;101161.34;4972934;28;20913;-48
2023/11/18 00:20:51;;;;;;;0.30;0.20;;;;;;;5.34;100.00;101163.22;4972703;28;20558;-48
2023/11/18 00:23:17;;;;;;;0.30;0.20;;;;;;;5.52;100.00;101158.09;4972520;28;21044;-48
2023/11/18 00:25:47;;;;;;;0.30;0.20;;;;;;;5.41;100.00;101151.88;4972663;28;20458;-49
2023/11/18 00:28:13;;;;;;;0.30;0.20;;;;;;;5.42;100.00;101151.00;4972770;28;20446;-49
2023/11/18 00:30:40;;;;;;;0.30;0.20;;;;;;;5.54;100.00;101158.97;4980663;28;20514;-48
2023/11/18 00:33:06;;;;;;;0.30;0.20;;;;;;;5.61;99.72;101155.50;4972568;28;20453;-48
2023/11/18 00:35:33;;;;;;;0.30;0.20;;;;;;;5.55;99.13;101151.94;4972472;28;20951;-48
2023/11/18 00:38:00;;;;;;;0.30;0.20;;;;;;;5.32;100.00;101165.84;4973575;28;20469;-48
2023/11/18 00:40:29;;;;;;;0.30;0.20;;;;;;;5.30;100.00;101159.69;4976278;28;20475;-49
2023/11/18 00:42:56;;;;;;;0.30;0.20;;;;;;;5.62;100.00;101165.19;4976147;28;20585;-48
2023/11/18 00:45:23;;;;;;;0.30;0.20;;;;;;;5.12;100.00;101164.84;4982179;28;20454;-49
2023/11/18 00:47:49;;;;;;;0.30;0.20;;;;;;;5.21;100.00;101164.94;4976100;28;20542;-48
2023/11/18 00:50:17;;;;;;;0.30;0.20;;;;;;;5.28;100.00;101165.84;4975761;28;20943;-48
2023/11/18 00:52:43;;;;;;;0.30;0.20;;;;;;;5.13;100.00;101169.25;4976214;28;20452;-48
2023/11/18 00:55:10;;;;;;;0.30;0.20;;;;;;;5.26;100.00;101170.22;4975891;28;20493;-48
2023/11/18 00:57:40;;;;;;;0.30;0.10;;;;;;;5.01;100.00;101182.31;4976013;28;20477;-49
2023/11/18 01:00:08;;;;;;;0.30;0.20;;;;;;;4.90;100.00;101176.94;4975631;28;20968;-48
2023/11/18 01:02:38;;;;;;;0.30;0.20;;;;;;;4.83;100.00;101187.44;4975735;28;20588;-48
2023/11/18 01:05:05;;;;;;;0.30;0.20;;;;;;;4.82;100.00;101176.00;4976693;28;20464;-48
2023/11/18 01:07:33;;;;;;;0.30;0.20;;;;;;;4.85;100.00;101173.41;4975976;28;20457;-48
2023/11/18 01:10:00;;;;;;;0.30;0.20;;;;;;;4.69;100.00;101176.78;4975583;28;20501;-48
2023/11/18 01:12:27;;;;;;;0.30;0.20;;;;;;;4.75;100.00;101168.91;4975677;28;20473;-48
2023/11/18 01:14:53;;;;;;;0.30;0.20;;;;;;;4.84;100.00;101170.75;4976094;28;20816;-49
2023/11/18 01:17:22;;;;;;;0.30;0.20;;;;;;;4.89;100.00;101166.41;4975793;28;20494;-49
2023/11/18 01:19:48;;;;;;;0.30;0.20;;;;;;;4.94;100.00;101164.72;4975643;28;20581;-48
2023/11/18 01:22:15;;;;;;;0.30;0.20;;;;;;;4.72;100.00;101161.00;4975424;28;20497;-49
2023/11/18 01:24:41;;;;;;;0.30;0.20;;;;;;;4.89;100.00;101162.00;4975451;28;20534;-48
2023/11/18 01:27:09;;;;;;;0.30;0.20;;;;;;;5.02;100.00;101163.88;4975476;28;20447;-48
2023/11/18 01:29:36;;;;;;;0.30;0.20;;;;;;;5.25;100.00;101157.91;4981290;28;20557;-48
2023/11/18 01:32:08;;;;;;;0.30;0.20;;;;;;;5.18;100.00;101159.59;4977282;28;20913;-48
2023/11/18 01:34:38;;;;;;;0.30;0.20;;;;;;;5.01;100.00;101170.03;4975560;28;20514;-49
2023/11/18 01:37:07;;;;;;;0.30;0.20;;;;;;;5.08;100.00;101175.34;4975394;28;20532;-48
2023/11/18 01:39:34;;;;;;;0.30;0.20;;;;;;;5.09;100.00;101166.59;4975218;28;20454;-49
2023/11/18 01:42:00;;;;;;;0.30;0.20;;;;;;;5.16;100.00;101157.84;4974871;28;20490;-48
2023/11/18 01:44:30;;;;;;;0.30;0.20;;;;;;;5.05;100.00;101160.38;4978212;28;20839;-48
2023/11/18 01:46:58;;;;;;;0.30;0.20;;;;;;;5.17;100.00;101163.13;4975078;28;20905;-49
2023/11/18 01:49:27;;;;;;;0.30;0.20;;;;;;;5.13;100.00;101161.34;4974878;28;20557;-49
2023/11/18 01:51:54;;;;;;;0.30;0.20;;;;;;;5.14;100.00;101156.94;4977109;28;20488;-48
2023/11/18 01:54:23;;;;;;;0.30;0.20;;;;;;;4.84;100.00;101166.38;4974891;28;20545;-48
2023/11/18 01:56:51;;;;;;;0.30;0.20;;;;;;;4.82;100.00;101178.66;4974769;28;20867;-48
2023/11/18 01:59:18;;;;;;;0.30;0.20;;;;;;;4.69;100.00;101182.03;4975728;28;20455;-49
2023/11/18 02:01:59;;;;;;;0.73;0.73;;;;;;;4.51;100.00;101176.56;4976551;28;20490;-48
2023/11/18 02:04:26;;;;;;;0.30;0.20;;;;;;;4.42;100.00;101193.16;4974671;28;20967;-48
2023/11/18 02:06:53;;;;;;;0.30;0.20;;;;;;;4.33;99.95;101196.56;4974657;28;20451;-48
2023/11/18 02:09:28;;;;;;;0.30;0.20;;;;;;;4.21;99.47;101196.41;4974600;28;20900;-48
2023/11/18 02:12:20;;;;;;;0.30;0.20;;;;;;;4.07;100.00;101179.59;4974762;28;20915;-48
2023/11/18 02:14:48;;;;;;;0.30;0.20;;;;;;;4.23;100.00;101188.53;4975530;28;20469;-48
2023/11/18 02:17:19;;;;;;;0.30;0.20;;;;;;;4.12;100.00;101185.81;4974504;28;20454;-48
2023/11/18 02:19:46;;;;;;;0.30;0.20;;;;;;;4.33;100.00;101179.88;4975999;28;20525;-48
2023/11/18 02:22:14;;;;;;;0.30;0.20;;;;;;;4.34;100.00;101182.53;4974732;28;20916;-48
2023/11/18 02:24:42;;;;;;;0.30;0.20;;;;;;;4.41;100.00;101184.38;4974804;28;20455;-48
2023/11/18 02:27:11;;;;;;;0.30;0.20;;;;;;;4.21;100.00;101190.28;4975457;28;20894;-48
2023/11/18 02:29:42;;;;;;;0.30;0.20;;;;;;;4.34;100.00;101185.16;4980686;28;20775;-48
2023/11/18 02:32:15;;;;;;;0.30;0.20;;;;;;;4.25;100.00;101194.69;4975165;28;20463;-48
2023/11/18 02:34:53;;;;;;;0.30;0.20;;;;;;;4.35;100.00;101192.19;4974187;28;20940;-48
2023/11/18 02:37:21;;;;;;;0.30;0.20;;;;;;;4.56;100.00;101191.56;4974056;28;20558;-48
2023/11/18 02:39:57;;;;;;;0.30;0.10;;;;;;;4.31;100.00;101193.03;4974313;28;20454;-49
2023/11/18 02:42:24;;;;;;;0.30;0.20;;;;;;;4.24;100.00;101187.66;4973930;28;20573;-48
2023/11/18 02:44:59;;;;;;;0.30;0.17;;;;;;;4.26;100.00;101191.22;4973876;28;20966;-49
2023/11/18 02:47:26;;;;;;;0.30;0.20;;;;;;;4.34;100.00;101189.53;4974248;28;20541;-49
2023/11/18 02:49:54;;;;;;;0.30;0.20;;;;;;;4.15;100.00;101191.97;4973912;28;20455;-48
2023/11/18 02:52:20;;;;;;;0.30;0.20;;;;;;;3.89;100.00;101189.88;4978855;28;20485;-48
2023/11/18 02:54:47;;;;;;;0.30;0.20;;;;;;;3.83;100.00;101180.16;4973749;28;20454;-48
2023/11/18 02:57:13;;;;;;;0.30;0.20;;;;;;;4.26;100.00;101176.31;4973779;28;20457;-48
2023/11/18 02:59:40;;;;;;;0.30;0.20;;;;;;;4.49;100.00;101167.78;4973565;28;20986;-48
2023/11/18 03:02:06;;;;;;;0.30;0.10;;;;;;;4.61;100.00;101171.41;4972744;28;20498;-48
2023/11/18 03:04:33;;;;;;;0.30;0.20;;;;;;;4.79;100.00;101170.69;4973461;28;20553;-48
2023/11/18 03:07:00;;;;;;;0.30;0.10;;;;;;;4.82;100.00;101175.13;4981031;28;20523;-48
2023/11/18 03:09:27;;;;;;;0.30;0.20;;;;;;;4.91;100.00;101173.44;4978571;28;20486;-48
2023/11/18 03:11:54;;;;;;;0.30;0.20;;;;;;;4.99;100.00;101173.53;4973352;28;20478;-48
2023/11/18 03:14:21;;;;;;;0.30;0.20;;;;;;;5.13;100.00;101171.88;4973466;28;20886;-49
2023/11/18 03:16:48;;;;;;;0.30;0.17;;;;;;;5.10;100.00;101170.97;4973713;28;20569;-48
2023/11/18 03:19:14;;;;;;;0.30;0.20;;;;;;;5.00;100.00;101177.91;4973290;28;20546;-48
2023/11/18 03:21:41;;;;;;;0.30;0.20;;;;;;;5.11;100.00;101171.00;4977714;28;20993;-48
2023/11/18 03:24:08;;;;;;;0.30;0.20;;;;;;;5.13;100.00;101177.16;4977359;28;20496;-48
2023/11/18 03:26:34;;;;;;;0.30;0.20;;;;;;;5.16;100.00;101171.91;4973090;28;20970;-48
2023/11/18 03:29:00;;;;;;;0.40;0.30;;;;;;;5.19;100.00;101174.53;4961845;28;21027;-49
2023/11/18 03:31:28;;;;;;;0.30;0.20;;;;;;;5.26;100.00;101176.38;4980131;28;20474;-48
2023/11/18 03:33:55;;;;;;;0.30;0.20;;;;;;;5.11;100.00;101157.81;4973175;28;20799;-48
2023/11/18 03:36:21;;;;;;;0.30;0.20;;;;;;;5.13;100.00;101173.63;4973123;28;20458;-48
2023/11/18 03:38:49;;;;;;;0.40;0.20;;;;;;;5.10;100.00;101169.22;4972843;28;20902;-48
2023/11/18 03:41:15;;;;;;;0.30;0.20;;;;;;;5.18;100.00;101172.78;4972940;28;21045;-48
2023/11/18 03:43:42;;;;;;;0.30;0.20;;;;;;;5.04;100.00;101170.03;4972928;28;21069;-48
2023/11/18 03:46:10;;;;;;;0.30;0.20;;;;;;;5.00;100.00;101170.00;4976344;28;20453;-48
2023/11/18 03:48:37;;;;;;;0.30;0.20;;;;;;;5.11;100.00;101168.34;4975557;28;20467;-48
2023/11/18 03:51:04;;;;;;;0.30;0.20;;;;;;;5.35;100.00;101175.56;4972819;28;20478;-48
2023/11/18 03:53:30;;;;;;;0.30;0.20;;;;;;;5.33;100.00;101182.56;4973132;28;20476;-48
2023/11/18 03:55:57;;;;;;;0.30;0.20;;;;;;;5.33;100.00;101178.16;4973133;28;20450;-48
2023/11/18 03:58:23;;;;;;;0.30;0.20;;;;;;;5.36;100.00;101179.97;4973858;28;20509;-48
2023/11/18 04:00:50;;;;;;;0.30;0.20;;;;;;;5.33;100.00;101172.88;4973887;28;20482;-49
2023/11/18 04:03:16;;;;;;;1.03;1.03;;;;;;;5.32;100.00;101167.63;4972715;28;20489;-48
2023/11/18 04:05:44;;;;;;;0.30;0.20;;;;;;;5.41;100.00;101158.91;4972790;28;20446;-48
2023/11/18 04:08:11;;;;;;;0.30;0.20;;;;;;;5.35;100.00;101155.34;4972933;28;20781;-48
2023/11/18 04:10:38;;;;;;;0.30;0.20;;;;;;;5.30;100.00;101161.44;4975034;28;20488;-49
2023/11/18 04:13:04;;;;;;;0.30;0.20;;;;;;;5.44;100.00;101161.53;4977963;28;20505;-48
2023/11/18 04:15:31;;;;;;;0.30;0.20;;;;;;;5.56;100.00;101166.91;4976732;28;20459;-48
2023/11/18 04:17:57;;;;;;;0.30;0.20;;;;;;;5.52;100.00;101155.47;4976602;28;20460;-48
2023/11/18 04:20:24;;;;;;;0.30;0.20;;;;;;;5.57;100.00;101163.38;4976472;28;20573;-46
2023/11/18 04:22:50;;;;;;;0.30;0.20;;;;;;;5.56;100.00;101166.91;4976673;28;20873;-46
2023/11/18 04:25:17;;;;;;;0.30;0.20;;;;;;;5.63;100.00;101161.69;4976804;28;20458;-46
2023/11/18 04:27:43;;;;;;;0.30;0.20;;;;;;;5.67;100.00;101154.66;4976685;28;20454;-47
2023/11/18 04:30:12;;;;;;;0.30;0.20;;;;;;;5.60;100.00;101160.75;4984877;28;20536;-47
2023/11/18 04:32:42;;;;;;;0.30;0.20;;;;;;;5.79;100.00;101159.13;4976567;28;20454;-47
2023/11/18 04:35:09;;;;;;;0.30;0.20;;;;;;;5.83;100.00;101158.25;4976572;28;20860;-47
2023/11/18 04:37:36;;;;;;;0.30;0.20;;;;;;;5.85;100.00;101152.09;4976511;28;20466;-47
2023/11/18 04:40:03;;;;;;;0.30;0.20;;;;;;;5.82;100.00;101165.28;4976546;28;20454;-47
2023/11/18 04:42:30;;;;;;;0.30;0.20;;;;;;;5.79;100.00;101162.63;4976350;28;20536;-47
2023/11/18 04:44:57;;;;;;;0.30;0.20;;;;;;;5.89;100.00;101166.19;4980007;28;20537;-46
2023/11/18 04:47:25;;;;;;;4.07;3.80;;;;;;;5.99;100.00;101167.16;4976212;28;20453;-46
2023/11/18 04:49:52;;;;;;;0.30;0.20;;;;;;;5.86;100.00;101169.69;4977661;28;20824;-47
2023/11/18 04:52:18;;;;;;;0.30;0.20;;;;;;;5.88;100.00;101170.56;4976192;28;20474;-47
2023/11/18 04:54:47;;;;;;;0.30;0.20;;;;;;;5.98;100.00;101163.63;4975867;28;20522;-47
2023/11/18 04:57:14;;;;;;;0.30;0.20;;;;;;;5.99;100.00;101169.78;4976142;28;20450;-47
2023/11/18 04:59:44;;;;;;;0.30;0.20;;;;;;;6.04;100.00;101158.38;4975927;28;20553;-47
2023/11/18 05:02:13;;;;;;;0.30;0.20;;;;;;;6.16;100.00;101165.44;4975774;28;20478;-46
2023/11/18 05:04:41;;;;;;;0.30;0.20;;;;;;;6.15;100.00;101167.22;4975881;28;20512;-46
2023/11/18 05:07:07;;;;;;;0.30;0.20;;;;;;;6.17;100.00;101178.69;4975761;28;20998;-47
2023/11/18 05:09:34;;;;;;;0.40;0.40;;;;;;;6.16;100.00;101176.88;4975814;28;20541;-47
2023/11/18 05:12:00;;;;;;;0.30;0.20;;;;;;;6.09;100.00;101179.50;4975677;28;20525;-47
2023/11/18 05:14:28;;;;;;;0.30;0.20;;;;;;;6.14;100.00;101160.16;4975358;28;20550;-47
2023/11/18 05:16:55;;;;;;;0.30;0.20;;;;;;;6.07;100.00;101161.03;4975888;28;20509;-48
2023/11/18 05:19:21;;;;;;;0.30;0.20;;;;;;;6.12;100.00;101148.72;4975695;28;20530;-47
2023/11/18 05:21:49;;;;;;;0.30;0.20;;;;;;;6.12;100.00;101138.16;4975655;28;20476;-47
2023/11/18 05:24:16;;;;;;;0.30;0.20;;;;;;;6.21;100.00;101135.56;4975082;28;20490;-47
2023/11/18 05:26:42;;;;;;;0.30;0.20;;;;;;;6.14;100.00;101141.69;4975715;28;20488;-46
2023/11/18 05:29:09;;;;;;;0.30;0.20;;;;;;;6.21;100.00;101137.31;4975352;28;20458;-46
2023/11/18 05:31:37;;;;;;;0.30;0.20;;;;;;;6.23;100.00;101132.94;4975497;28;20946;-47
2023/11/18 05:34:04;;;;;;;0.30;0.20;;;;;;;6.22;100.00;101125.88;4975437;28;20453;-47
2023/11/18 05:36:36;;;;;;;0.30;0.20;;;;;;;6.15;100.00;101122.34;4975415;28;21022;-47
2023/11/18 05:39:05;;;;;;;0.30;0.20;;;;;;;6.18;100.00;101114.44;4972763;28;20450;-46
2023/11/18 05:41:32;;;;;;;0.30;0.20;;;;;;;6.12;100.00;101117.06;4984521;28;20993;-48
2023/11/18 05:43:58;;;;;;;0.30;0.20;;;;;;;6.11;100.00;101117.94;4980655;28;20497;-48
2023/11/18 05:46:29;;;;;;;0.30;0.20;;;;;;;6.23;100.00;101123.25;4975303;28;20450;-48
2023/11/18 05:48:56;;;;;;;0.30;0.20;;;;;;;6.32;100.00;101113.59;4974791;28;20513;-48
2023/11/18 05:51:25;;;;;;;0.30;0.20;;;;;;;6.29;100.00;101110.94;4973939;28;20470;-48
2023/11/18 05:53:52;;;;;;;0.30;0.20;;;;;;;6.26;100.00;101109.16;4965825;28;20450;-49
2023/11/18 05:56:22;;;;;;;0.30;0.20;;;;;;;6.18;100.00;101111.81;4978933;28;20796;-48
2023/11/18 05:58:48;;;;;;;0.30;0.20;;;;;;;6.20;100.00;101112.69;4976522;28;20476;-48
2023/11/18 06:01:16;;;;;;;0.30;0.20;;;;;;;6.30;100.00;101116.22;4974761;28;20636;-49
2023/11/18 06:03:43;;;;;;;0.30;0.20;;;;;;;6.39;100.00;101115.34;4974719;28;20490;-49
2023/11/18 06:06:12;;;;;;;0.33;0.27;;;;;;;6.41;100.00;101125.03;4975677;28;21010;-49
2023/11/18 06:08:42;;;;;;;0.30;0.20;;;;;;;6.52;100.00;101118.00;4985215;28;20455;-49
2023/11/18 06:11:13;;;;;;;0.30;0.20;;;;;;;6.61;100.00;101125.09;4974638;28;20466;-49
2023/11/18 06:13:46;;;;;;;0.30;0.20;;;;;;;6.57;100.00;101128.56;4974791;28;20447;-49
2023/11/18 06:16:14;;;;;;;0.30;0.20;;;;;;;6.39;100.00;101123.28;4974508;28;20481;-49
2023/11/18 06:18:44;;;;;;;0.30;0.20;;;;;;;6.42;100.00;101118.00;4974636;28;20461;-49
2023/11/18 06:21:15;;;;;;;0.30;0.20;;;;;;;6.44;100.00;101117.16;4974135;28;20505;-50
2023/11/18 06:23:42;;;;;;;0.30;0.20;;;;;;;6.49;100.00;101114.50;4974339;28;20494;-50
2023/11/18 06:26:11;;;;;;;0.30;0.20;;;;;;;6.52;100.00;101093.38;4974467;28;20509;-49
2023/11/18 06:28:40;;;;;;;0.30;0.20;;;;;;;6.41;100.00;101101.28;4974321;28;20450;-49
2023/11/18 06:31:08;;;;;;;0.30;0.20;;;;;;;6.43;100.00;101096.00;4974239;28;20466;-49
2023/11/18 06:33:43;;;;;;;0.30;0.20;;;;;;;6.44;100.00;101092.47;4974226;28;20454;-49
2023/11/18 06:36:13;;;;;;;0.30;0.20;;;;;;;6.43;100.00;101102.16;4960697;28;20457;-49
2023/11/18 06:38:40;;;;;;;0.30;0.20;;;;;;;6.50;100.00;101116.25;4974069;28;20501;-49
2023/11/18 06:41:12;;;;;;;0.30;0.20;;;;;;;6.52;100.00;101115.38;4980536;28;20565;-49
2023/11/18 06:46:28;;;;;;;0.30;0.20;;;;;;;6.46;100.00;101119.78;4972722;28;20935;-48
2023/11/18 06:48:57;;;;;;;0.30;0.20;;;;;;;6.50;100.00;101121.53;4974023;28;20557;-49
2023/11/18 06:51:25;;;;;;;0.30;0.20;;;;;;;6.45;100.00;101125.94;4979610;28;20569;-49
2023/11/18 06:53:54;;;;;;;0.30;0.20;;;;;;;6.48;100.00;101132.09;4977424;28;20550;-49
2023/11/18 06:56:28;;;;;;;0.30;0.20;;;;;;;6.56;100.00;101139.16;5090128;27;20527;-49
2023/11/18 06:58:54;;;;;;;0.30;0.20;;;;;;;6.63;100.00;101144.44;5082094;28;20449;-47
2023/11/18 07:01:21;;;;;;;0.30;0.20;;;;;;;6.73;100.00;101133.03;5078411;28;20470;-48
2023/11/18 07:03:51;;;;;;;0.30;0.20;;;;;;;6.68;100.00;101116.25;5076966;28;20536;-49
2023/11/18 07:06:23;;;;;;;0.30;0.20;;;;;;;6.46;100.00;101112.75;5095484;23;20986;-44
2023/11/18 07:08:49;;;;;;;0.30;0.20;;;;;;;6.60;100.00;101120.69;5019782;28;20898;-46
2023/11/18 07:11:17;;;;;;;0.30;0.20;;;;;;;6.71;100.00;101121.53;5021921;28;20452;-45
2023/11/18 07:13:44;;;;;;;0.30;0.20;;;;;;;6.74;100.00;101107.47;5009300;28;20449;-45
2023/11/18 07:16:11;;;;;;;0.30;0.20;;;;;;;6.71;100.00;101110.09;5021669;28;20444;-47
2023/11/18 07:18:42;;;;;;;0.30;0.20;;;;;;;6.66;100.00;101117.16;5010815;28;20510;-47
2023/11/18 07:21:09;;;;;;;0.30;0.20;;;;;;;6.69;100.00;101120.66;5021708;28;20972;-47
2023/11/18 07:23:35;;;;;;;0.30;0.20;;;;;;;6.75;100.00;101118.06;5024036;28;20551;-48
2023/11/18 07:26:05;;;;;;;0.30;0.20;;;;;;;6.78;100.00;101122.44;5014860;28;20505;-47
2023/11/18 07:28:32;;;;;;;0.30;0.20;;;;;;;6.83;100.00;101120.66;5024789;28;20499;-47
2023/11/18 07:30:59;;;;;;;0.30;0.20;;;;;;;6.74;100.00;101131.25;5030896;28;20456;-47
2023/11/18 07:33:26;;;;;;;0.30;0.20;;;;;;;6.69;100.00;101135.63;5017591;28;20452;-47
2023/11/18 07:35:53;;;;;;;0.30;0.20;;;;;;;6.68;100.00;101121.56;5021266;28;20453;-47
2023/11/18 07:38:20;;;;;;;0.30;0.20;;;;;;;6.76;100.00;101129.50;5019034;28;20491;-47
2023/11/18 07:40:47;;;;;;;0.30;0.20;;;;;;;6.70;100.00;101130.34;5018946;28;20453;-47
2023/11/18 07:43:17;;;;;;;0.30;0.20;;;;;;;7.03;100.00;101141.84;5027492;28;20542;-48
2023/11/18 07:45:44;;;;;;;0.30;0.20;;;;;;;6.92;100.00;101140.94;5022792;28;20568;-48
2023/11/18 07:48:16;;;;;;;0.30;0.20;;;;;;;7.04;100.00;101141.81;5020972;28;20475;-48
2023/11/18 07:50:44;;;;;;;0.30;0.20;;;;;;;7.04;100.00;101135.66;5008439;28;20448;-47
2023/11/18 07:53:11;;;;;;;0.30;0.20;;;;;;;7.10;100.00;101141.81;5021891;28;20452;-47
2023/11/18 07:55:39;;;;;;;0.30;0.20;;;;;;;7.26;100.00;101139.16;5015239;28;20455;-48
2023/11/18 07:58:13;;;;;;;0.30;0.20;;;;;;;7.11;100.00;101137.41;5014843;28;20473;-47
2023/11/18 08:00:41;;;;;;;0.30;0.20;;;;;;;7.05;100.00;101129.50;5025792;28;20933;-47
2023/11/18 08:03:11;;;;;;;0.30;0.20;;;;;;;7.14;100.00;101129.50;5014345;28;21033;-47
2023/11/18 08:05:45;;;;;;;0.30;0.20;;;;;;;7.20;100.00;101123.31;5018376;28;20491;-50
2023/11/18 08:08:13;;;;;;;0.30;0.20;;;;;;;7.41;100.00;101126.81;5002519;28;20571;-47
2023/11/18 08:10:40;;;;;;;0.60;0.60;;;;;;;7.46;100.00;101128.53;4996121;28;20449;-48
2023/11/18 08:13:08;;;;;;;0.30;0.20;;;;;;;7.82;100.00;101132.84;4997325;28;20485;-47
2023/11/18 08:15:38;;;;;;;0.30;0.20;;;;;;;7.78;100.00;101125.78;4995323;28;20821;-48
2023/11/18 08:18:06;;;;;;;1.07;1.07;;;;;;;7.76;100.00;101124.91;4994998;28;20479;-47
2023/11/18 08:20:33;;;;;;;0.30;0.20;;;;;;;8.02;100.00;101126.56;4995212;28;20456;-47
2023/11/18 08:22:59;;;;;;;0.30;0.20;;;;;;;8.02;100.00;101120.41;5003005;28;20545;-47
2023/11/18 08:25:26;;;;;;;0.30;0.20;;;;;;;7.90;100.00;101109.88;5006775;28;20551;-48
2023/11/18 08:27:53;;;;;;;0.30;0.20;;;;;;;7.83;100.00;101114.31;5004466;28;20576;-47
2023/11/18 08:30:20;;;;;;;0.30;0.20;;;;;;;7.88;100.00;101101.94;5007025;28;20515;-47
2023/11/18 08:32:47;;;;;;;0.30;0.20;;;;;;;7.99;100.00;101102.78;4995455;28;20949;-47
2023/11/18 08:35:15;;;;;;;0.30;0.20;;;;;;;7.97;100.00;101093.09;4994831;28;20442;-47
2023/11/18 08:37:43;;;;;;;0.30;0.20;;;;;;;8.02;100.00;101097.47;5007669;28;20477;-48
2023/11/18 08:40:14;;;;;;;0.30;0.20;;;;;;;8.13;100.00;101099.16;5007259;28;20812;-49
2023/11/18 08:42:49;;;;;;;0.30;0.20;;;;;;;8.08;100.00;101099.19;5007437;28;20863;-47
2023/11/18 08:45:29;;;;;;;0.30;0.20;;;;;;;8.06;100.00;101092.13;5008885;28;20492;-46
2023/11/18 08:47:57;;;;;;;0.30;0.20;;;;;;;8.08;100.00;101098.28;5013916;28;20464;-47
2023/11/18 08:50:25;;;;;;;0.30;0.30;;;;;;;8.14;100.00;101100.94;5000641;28;20893;-48
2023/11/18 08:52:57;;;;;;;0.30;0.20;;;;;;;7.97;100.00;101098.38;5013860;28;20539;-48
2023/11/18 08:55:39;;;;;;;0.30;0.20;;;;;;;8.20;100.00;101101.75;5000159;28;20527;-47
2023/11/18 08:58:27;;;;;;;0.30;0.20;;;;;;;8.20;100.00;101101.75;5012517;28;20961;-49
2023/11/18 09:01:12;;;;;;;0.30;0.20;;;;;;;7.86;100.00;101100.19;5004728;28;20461;-47
2023/11/18 09:03:43;;;;;;;0.30;0.20;;;;;;;7.94;100.00;101107.19;5007151;28;20449;-48
2023/11/18 09:06:25;;;;;;;0.30;0.20;;;;;;;7.98;100.00;101108.97;5007234;28;20497;-47
2023/11/18 09:08:54;;;;;;;0.30;0.20;;;;;;;7.92;100.00;101105.44;5000944;28;20445;-48
2023/11/18 09:11:28;;;;;;;0.30;0.20;;;;;;;8.01;100.00;101106.28;5005760;28;20449;-47
2023/11/18 09:13:59;;;;;;;0.30;0.20;;;;;;;7.96;100.00;101097.50;5004328;28;20452;-48
2023/11/18 09:16:29;;;;;;;0.30;0.20;;;;;;;7.98;100.00;101098.38;4999925;28;20472;-47
2023/11/18 09:19:02;;;;;;;0.30;0.20;;;;;;;8.34;100.00;101104.34;5012571;28;20448;-47
2023/11/18 09:21:29;;;;;;;1.43;1.33;;;;;;;8.32;100.00;101100.81;5000388;28;20544;-47
2023/11/18 09:23:56;;;;;;;0.30;0.20;;;;;;;8.33;100.00;101103.44;5013288;28;20448;-47
2023/11/18 09:26:25;;;;;;;0.30;0.20;;;;;;;8.51;100.00;101101.63;5007041;28;20481;-47
2023/11/18 09:28:52;;;;;;;0.30;0.20;;;;;;;8.61;100.00;101109.47;5004629;28;20457;-47
2023/11/18 09:31:21;;;;;;;0.30;0.20;;;;;;;8.65;100.00;101106.81;5017901;28;20457;-46
2023/11/18 09:33:51;;;;;;;0.30;0.20;;;;;;;8.75;100.00;101108.47;5011567;28;21020;-49
2023/11/18 09:36:20;;;;;;;0.40;0.30;;;;;;;8.66;100.00;101105.94;5000902;28;20536;-47
2023/11/18 09:38:46;;;;;;;0.30;0.20;;;;;;;8.66;100.00;101105.94;5006230;28;20452;-48
2023/11/18 09:41:15;;;;;;;0.30;0.20;;;;;;;8.74;100.00;101098.78;4993192;28;20453;-47
2023/11/18 09:43:47;;;;;;;0.30;0.20;;;;;;;8.75;99.63;101105.84;5006593;28;20456;-48
2023/11/18 09:46:18;;;;;;;0.30;0.20;;;;;;;8.69;100.00;101109.44;5009726;28;20854;-48
2023/11/18 09:48:52;;;;;;;0.30;0.20;;;;;;;8.67;100.00;101097.09;5000068;28;20469;-47
2023/11/18 09:51:20;;;;;;;0.30;0.20;;;;;;;8.43;100.00;101104.31;5001246;28;20508;-47
2023/11/18 09:53:52;;;;;;;0.30;0.20;;;;;;;8.61;100.00;101100.63;5005710;28;20869;-48
2023/11/18 09:56:45;;;;;;;0.40;0.20;;;;;;;8.75;100.00;101106.72;5005376;28;20444;-47
2023/11/18 09:59:23;;;;;;;0.30;0.20;;;;;;;8.88;100.00;101105.72;5003599;28;20904;-47
2023/11/18 10:01:56;;;;;;;0.30;0.20;;;;;;;8.97;100.00;101098.59;5003867;28;20457;-47
2023/11/18 10:04:27;;;;;;;0.30;0.20;;;;;;;8.85;100.00;101095.16;5005534;28;20547;-47
2023/11/18 10:06:56;;;;;;;0.30;0.20;;;;;;;8.75;100.00;101089.94;5005540;28;20588;-47
2023/11/18 10:09:37;;;;;;;0.30;0.20;;;;;;;8.68;100.00;101082.94;4995069;28;20453;-47
2023/11/18 10:12:07;;;;;;;0.30;0.20;;;;;;;8.77;100.00;101098.75;5003558;28;20483;-48
2023/11/18 10:14:34;;;;;;;0.30;0.20;;;;;;;8.85;100.00;101100.44;5008465;28;20484;-47
2023/11/18 10:17:07;;;;;;;0.30;0.20;;;;;;;8.78;100.00;101103.19;5002919;28;20480;-48
2023/11/18 10:19:55;;;;;;;0.30;0.20;;;;;;;8.85;100.00;101096.91;5005895;28;20446;-48
2023/11/18 10:22:24;;;;;;;0.30;0.20;;;;;;;8.78;100.00;101097.88;5005622;28;20831;-48
2023/11/18 10:24:54;;;;;;;0.30;0.20;;;;;;;9.02;100.00;101099.41;4992498;28;20457;-48
2023/11/18 10:27:25;;;;;;;0.30;0.20;;;;;;;8.82;100.00;101097.84;5005443;28;21008;-48
2023/11/18 10:30:02;;;;;;;0.30;0.20;;;;;;;8.76;100.00;101094.34;5000530;28;20495;-48
2023/11/18 10:32:29;;;;;;;0.30;0.20;;;;;;;8.86;100.00;101081.00;4995807;28;20454;-47
2023/11/18 10:34:56;;;;;;;0.30;0.20;;;;;;;9.03;100.00;101094.09;5001959;28;20846;-48
2023/11/18 10:37:30;;;;;;;0.30;0.20;;;;;;;8.88;100.00;101087.16;5005196;28;20485;-48
2023/11/18 10:39:58;;;;;;;0.30;0.20;;;;;;;9.04;100.00;101082.59;5004096;28;20929;-48
2023/11/18 10:42:30;;;;;;;0.30;0.20;;;;;;;9.05;100.00;101075.53;4998709;28;20536;-47
2023/11/18 10:44:58;;;;;;;0.30;0.20;;;;;;;8.97;100.00;101072.97;5002729;28;20487;-48
2023/11/18 10:47:26;;;;;;;0.30;0.20;;;;;;;9.29;100.00;101074.41;5011983;28;20500;-48
2023/11/18 10:49:55;;;;;;;0.83;0.83;;;;;;;9.41;100.00;101068.97;4998513;28;20996;-48
2023/11/18 10:52:23;;;;;;;0.30;0.20;;;;;;;9.24;100.00;101060.31;4999702;28;20448;-48
2023/11/18 10:54:54;;;;;;;0.30;0.20;;;;;;;9.29;100.00;101062.00;4998094;28;20889;-49
2023/11/18 10:57:22;;;;;;;0.30;0.20;;;;;;;9.32;100.00;101056.69;4999939;28;20468;-48
2023/11/18 11:00:12;;;;;;;0.30;0.20;;;;;;;9.45;100.00;101041.47;5010223;28;20452;-48
2023/11/18 11:02:41;;;;;;;0.30;0.20;;;;;;;9.29;100.00;101035.47;5003872;28;20471;-48
2023/11/18 11:05:15;;;;;;;0.30;0.20;;;;;;;9.20;100.00;101020.56;4998422;28;20463;-48
2023/11/18 11:07:48;;;;;;;0.30;0.20;;;;;;;9.27;100.00;101021.34;4998463;28;20507;-48
2023/11/18 11:10:15;;;;;;;0.30;0.20;;;;;;;9.79;100.00;101010.97;5000504;28;20602;-47
2023/11/18 11:12:52;;;;;;;0.30;0.20;;;;;;;9.58;99.14;101000.63;5005055;28;20456;-47
2023/11/18 11:15:28;;;;;;;0.30;0.20;;;;;;;9.48;100.00;101010.50;4992479;28;20424;-47
2023/11/18 11:18:08;;;;;;;0.30;0.20;;;;;;;9.55;100.00;101003.31;5005150;28;20513;-48
2023/11/18 11:20:42;;;;;;;0.30;0.20;;;;;;;9.64;100.00;100994.38;5004171;28;20800;-47
2023/11/18 11:23:27;;;;;;;0.30;0.20;;;;;;;9.65;100.00;100988.16;5004686;28;20536;-47
2023/11/18 11:26:09;;;;;;;0.30;0.20;;;;;;;9.68;100.00;100982.81;5004985;28;21080;-48
2023/11/18 11:29:00;;;;;;;0.30;0.20;;;;;;;9.77;100.00;100982.69;5003005;28;20484;-48
2023/11/18 11:31:36;;;;;;;0.30;0.20;;;;;;;9.91;99.77;100978.06;5021765;28;20445;-48
2023/11/18 11:34:07;;;;;;;0.30;0.20;;;;;;;10.13;98.93;100980.38;5007985;28;20452;-47
2023/11/18 11:36:41;;;;;;;0.30;0.20;;;;;;;10.09;98.98;100976.91;5005925;28;20468;-48
2023/11/18 11:39:15;;;;;;;0.30;0.20;;;;;;;10.07;98.36;100973.38;5003237;28;20449;-48